Main page
METAR-TAF:

METAR-TAF

Airports :

Bamako–Modibo Keïta International Airport

Bamako, Mali

latitude: 12-32N, longitude: 007-57W, elevation: 380 m

Current weather observation

The report was made 19 minutes ago, at 00:30 UTC
Wind 2 kt from variable directions
Temperature 19°C
Humidity 32%
Pressure 1015 hPa
Visibility 10 km or more
no clouds below 1500 m and no cumulonimbus

METAR: GABS 160030Z VRB02KT CAVOK 19/02 Q1015 NOSIG

Time: 00:49 (00:49 UTC)

Forecast

The report was made 1 hour and 49 minutes ago, at 23:00 UTC
Forecast valid from 16 at 00 UTC to 17 at 06 UTC
Wind 10 kt from the East/Northeast
Visibility: 8000 m
Probability 40% :
Temporary
from 16 at 06 UTC to 16 at 11 UTC
Visibility: 4000 m
widespread dust

TAF: GABS 152300Z 1600/1706 06010KT 8000 NSC PROB40 TEMPO 1606/1611 4000 DU

Weather observations and forecasts of more than 4000 airports (METAR and TAF reports).

The available stations are represented by yellow and red dots on the map.

Hover mouse over dot to see the name of the station.

Then click to see weather observations and forecasts.

To change the map : click on the green buttons with a black cross to zoom in, on the green button with a dash to zoom out, or on the green arrows for adjacent maps.


METAR-TAF: